Time;durP1;ratioP1;P1;durP2;ratioP2;P2;SDS_P1;SDS_P2;PMS_P1;PMS_P2;Temp;Humidity;BMP_temperature;BMP_pressure;BME280_temperature;BME280_humidity;BME280_pressure;Samples;Min_cycle;Max_cycle;Signal;HPM_P1;HPM_P2
2022/12/01 00:00:26;;;;;;;;;;;5.80;99.90;;;;;;5078096;28;19908;-67
2022/12/01 00:02:51;;;;;;;;;;;5.80;99.90;;;;;;5096072;28;19908;-67
2022/12/01 00:05:17;;;;;;;;;;;5.80;99.90;;;;;;5096076;28;19908;-68
2022/12/01 00:07:42;;;;;;;;;;;5.80;99.90;;;;;;5096056;28;19946;-67
2022/12/01 00:10:24;;;;;;;;;;;5.90;99.90;;;;;;5096039;28;19912;-67
2022/12/01 00:12:54;;;;;;;;;;;5.90;99.90;;;;;;5095989;28;19940;-67
2022/12/01 00:15:19;;;;;;;;;;;5.80;99.90;;;;;;5095861;28;19908;-67
2022/12/01 00:17:46;;;;;;;;;;;5.80;99.90;;;;;;5074124;28;19942;-67
2022/12/01 00:20:12;;;;;;;;;;;5.80;99.90;;;;;;5074271;28;19909;-67
2022/12/01 00:22:40;;;;;;;;;;;5.80;99.90;;;;;;5075531;28;19916;-67
2022/12/01 00:25:06;;;;;;;;;;;5.80;99.90;;;;;;5075428;28;19908;-67
2022/12/01 00:27:31;;;;;;;;;;;5.80;99.90;;;;;;5075448;28;19908;-67
2022/12/01 00:29:57;;;;;;;;;;;5.80;99.90;;;;;;5075407;28;19940;-67
2022/12/01 00:32:22;;;;;;;;;;;5.80;99.90;;;;;;5075280;28;19915;-67
2022/12/01 00:34:48;;;;;;;;;;;5.90;99.90;;;;;;5075300;28;19920;-67
2022/12/01 00:37:13;;;;;;;;;;;5.80;99.90;;;;;;5075165;28;20425;-68
2022/12/01 00:39:39;;;;;;;;;;;5.80;99.90;;;;;;5075180;28;20064;-67
2022/12/01 00:42:04;;;;;;;;;;;5.80;99.90;;;;;;5075153;28;19908;-67
2022/12/01 00:44:30;;;;;;;;;;;5.80;99.90;;;;;;5075075;28;19915;-67
2022/12/01 00:46:55;;;;;;;;;;;5.80;99.90;;;;;;5075026;28;19916;-67
2022/12/01 00:49:20;;;;;;;;;;;5.80;99.90;;;;;;5074971;28;19915;-67
2022/12/01 00:51:46;;;;;;;;;;;5.80;99.90;;;;;;5074984;28;20002;-67
2022/12/01 00:54:11;;;;;;;;;;;5.80;99.90;;;;;;5073587;28;19909;-67
2022/12/01 00:56:37;;;;;;;;;;;5.80;99.90;;;;;;5074756;28;19930;-67
2022/12/01 00:59:02;;;;;;;;;;;5.80;99.90;;;;;;5073497;28;19909;-67
2022/12/01 01:01:28;;;;;;;;;;;5.80;99.90;;;;;;5073905;28;19935;-67
2022/12/01 01:03:57;;;;;;;;;;;5.80;99.90;;;;;;5073423;28;20362;-67
2022/12/01 01:06:22;;;;;;;;;;;5.70;99.90;;;;;;5074657;28;19909;-67
2022/12/01 01:08:48;;;;;;;;;;;5.70;99.90;;;;;;5073356;28;20277;-67
2022/12/01 01:11:13;;;;;;;;;;;5.80;99.90;;;;;;5074564;28;20055;-67
2022/12/01 01:13:39;;;;;;;;;;;5.70;99.90;;;;;;5074439;28;19916;-68
2022/12/01 01:16:06;;;;;;;;;;;5.80;99.90;;;;;;5074343;28;19909;-67
2022/12/01 01:18:32;;;;;;;;;;;5.70;99.90;;;;;;5072752;28;19921;-67
2022/12/01 01:20:58;;;;;;;;;;;5.80;99.90;;;;;;5074497;28;19915;-68
2022/12/01 01:23:24;;;;;;;;;;;5.70;99.90;;;;;;5074459;28;19915;-68
2022/12/01 01:25:49;;;;;;;;;;;5.70;99.90;;;;;;5089931;28;20364;-68
2022/12/01 01:28:15;;;;;;;;;;;5.70;99.90;;;;;;5074172;28;19956;-68
2022/12/01 01:30:40;;;;;;;;;;;5.70;99.90;;;;;;5074060;28;19954;-67
2022/12/01 01:33:06;;;;;;;;;;;5.70;99.90;;;;;;5074063;28;20003;-68
2022/12/01 01:35:31;;;;;;;;;;;5.80;99.90;;;;;;5073980;28;19916;-67
2022/12/01 01:37:57;;;;;;;;;;;5.80;99.90;;;;;;5074196;28;19995;-67
2022/12/01 01:40:22;;;;;;;;;;;5.70;99.90;;;;;;5073959;28;19909;-68
2022/12/01 01:42:48;;;;;;;;;;;5.80;99.90;;;;;;5073988;28;19912;-68
2022/12/01 01:45:22;;;;;;;;;;;5.80;99.90;;;;;;5074252;28;19908;-68
2022/12/01 01:47:49;;;;;;;;;;;5.80;99.90;;;;;;5074004;28;19908;-68
2022/12/01 01:50:17;;;;;;;;;;;5.80;99.90;;;;;;5072661;28;19916;-68
2022/12/01 01:52:45;;;;;;;;;;;5.80;99.90;;;;;;5073883;28;19913;-68
2022/12/01 01:55:11;;;;;;;;;;;5.80;99.90;;;;;;5073868;28;20348;-67
2022/12/01 01:57:37;;;;;;;;;;;5.70;99.90;;;;;;5073752;28;19912;-67
2022/12/01 02:00:06;;;;;;;;;;;5.80;99.90;;;;;;5089429;28;19915;-68
2022/12/01 02:02:39;;;;;;;;;;;5.80;99.90;;;;;;5073767;28;19916;-67
2022/12/01 02:05:09;;;;;;;;;;;5.70;99.90;;;;;;5074000;28;19909;-68
2022/12/01 02:07:36;;;;;;;;;;;5.80;99.90;;;;;;5073737;28;20386;-68
2022/12/01 02:10:02;;;;;;;;;;;5.70;99.90;;;;;;5073693;28;19944;-68
2022/12/01 02:12:47;;;;;;;;;;;5.70;99.90;;;;;;5073594;28;20267;-67
2022/12/01 02:15:20;;;;;;;;;;;5.80;99.90;;;;;;5073605;28;19958;-68
2022/12/01 02:18:06;;;;;;;;;;;5.70;99.90;;;;;;5101848;28;20007;-68
2022/12/01 02:20:51;;;;;;;;;;;5.70;99.90;;;;;;5093641;28;19908;-67
2022/12/01 02:23:29;;;;;;;;;;;5.80;99.90;;;;;;5093699;28;19908;-68
2022/12/01 02:26:05;;;;;;;;;;;5.80;99.90;;;;;;5093705;28;19915;-68
2022/12/01 02:28:50;;;;;;;;;;;5.80;99.90;;;;;;5093669;28;20025;-67
2022/12/01 02:31:20;;;;;;;;;;;5.70;99.90;;;;;;5093551;28;19915;-68
2022/12/01 02:33:51;;;;;;;;;;;5.80;99.90;;;;;;5075674;28;19914;-67
2022/12/01 02:36:21;;;;;;;;;;;5.80;99.90;;;;;;5093558;28;19916;-68
2022/12/01 02:38:53;;;;;;;;;;;5.80;99.90;;;;;;5075439;28;19998;-68
2022/12/01 02:44:04;;;;;;;;;;;5.70;99.90;;;;;;5091295;27;19913;-69
2022/12/01 02:46:36;;;;;;;;;;;5.70;99.90;;;;;;5091227;28;19916;-68
2022/12/01 02:49:05;;;;;;;;;;;5.70;99.90;;;;;;5091128;28;19935;-69
2022/12/01 02:51:32;;;;;;;;;;;5.70;99.90;;;;;;5089809;28;19919;-67
2022/12/01 02:53:58;;;;;;;;;;;5.70;99.90;;;;;;5091028;28;19999;-67
2022/12/01 02:56:23;;;;;;;;;;;5.70;99.90;;;;;;5090996;28;20362;-67
2022/12/01 02:58:49;;;;;;;;;;;5.80;99.90;;;;;;5123791;28;19909;-67
2022/12/01 03:01:22;;;;;;;;;;;5.80;99.90;;;;;;5090865;28;19908;-67
2022/12/01 03:03:56;;;;;;;;;;;5.80;99.90;;;;;;5090767;28;19923;-67
2022/12/01 03:06:36;;;;;;;;;;;5.80;99.90;;;;;;5090784;28;20317;-67
2022/12/01 03:09:09;;;;;;;;;;;5.80;99.90;;;;;;5090773;28;19912;-67
2022/12/01 03:11:37;;;;;;;;;;;5.80;99.90;;;;;;5090714;28;20365;-67
2022/12/01 03:14:08;;;;;;;;;;;5.80;99.90;;;;;;5089388;28;19909;-66
2022/12/01 03:16:46;;;;;;;;;;;5.80;99.90;;;;;;5090591;28;20010;-67
2022/12/01 03:19:15;;;;;;;;;;;5.70;99.90;;;;;;5123395;28;19919;-67
2022/12/01 03:21:46;;;;;;;;;;;5.70;99.90;;;;;;5090423;28;19915;-67
2022/12/01 03:24:13;;;;;;;;;;;5.70;99.90;;;;;;5090468;28;19919;-67
2022/12/01 03:26:40;;;;;;;;;;;5.70;99.90;;;;;;5090419;28;20361;-67
2022/12/01 03:29:08;;;;;;;;;;;5.70;99.90;;;;;;5089104;28;19908;-67
2022/12/01 03:31:41;;;;;;;;;;;5.60;99.90;;;;;;5090324;28;20023;-66
2022/12/01 03:34:11;;;;;;;;;;;5.70;99.90;;;;;;5090336;28;19954;-67
2022/12/01 03:36:54;;;;;;;;;;;5.60;99.90;;;;;;5123057;28;19909;-66
2022/12/01 03:39:22;;;;;;;;;;;5.60;99.90;;;;;;5090207;28;19908;-67
2022/12/01 03:41:52;;;;;;;;;;;5.60;99.90;;;;;;5107630;28;20376;-67
2022/12/01 03:44:24;;;;;;;;;;;5.60;99.90;;;;;;5092413;28;19912;-67
2022/12/01 03:46:52;;;;;;;;;;;5.60;99.90;;;;;;5110421;28;19923;-67
2022/12/01 03:49:18;;;;;;;;;;;5.60;99.90;;;;;;5092207;28;19908;-67
2022/12/01 03:51:54;;;;;;;;;;;5.60;99.90;;;;;;5110283;28;19908;-66
2022/12/01 03:54:24;;;;;;;;;;;5.60;99.90;;;;;;5102374;28;19915;-67
2022/12/01 03:56:54;;;;;;;;;;;5.60;99.90;;;;;;5096693;28;19915;-67
2022/12/01 03:59:21;;;;;;;;;;;5.60;99.90;;;;;;5096576;28;19915;-67
2022/12/01 04:01:46;;;;;;;;;;;5.60;99.90;;;;;;5078563;28;19916;-66
2022/12/01 04:04:13;;;;;;;;;;;5.60;99.90;;;;;;5078382;28;19912;-66
2022/12/01 04:06:41;;;;;;;;;;;5.50;99.90;;;;;;5096451;28;19931;-67
2022/12/01 04:09:06;;;;;;;;;;;5.60;99.90;;;;;;5078341;28;19908;-66
2022/12/01 04:14:17;;;;;;;;;;;5.50;99.90;;;;;;5080959;28;19908;-66
2022/12/01 04:16:43;;;;;;;;;;;5.60;99.90;;;;;;5078089;28;19992;-66
2022/12/01 04:19:09;;;;;;;;;;;5.60;99.90;;;;;;5096178;28;20419;-67
2022/12/01 04:21:35;;;;;;;;;;;5.50;99.90;;;;;;5096077;28;19908;-67
2022/12/01 04:24:00;;;;;;;;;;;5.60;99.90;;;;;;5096062;28;20385;-67
2022/12/01 04:26:26;;;;;;;;;;;5.50;99.90;;;;;;5077915;28;19942;-67
2022/12/01 04:28:52;;;;;;;;;;;5.50;99.90;;;;;;5095995;28;19946;-67
2022/12/01 04:31:17;;;;;;;;;;;5.50;99.90;;;;;;5077972;28;19908;-67
2022/12/01 04:33:43;;;;;;;;;;;5.50;99.90;;;;;;5095879;28;19915;-69
2022/12/01 04:36:08;;;;;;;;;;;5.50;99.90;;;;;;5061036;28;19914;-66
2022/12/01 04:38:35;;;;;;;;;;;5.50;99.90;;;;;;5095795;28;19908;-67
2022/12/01 04:41:07;;;;;;;;;;;5.50;99.90;;;;;;5095777;28;19919;-67
2022/12/01 04:43:32;;;;;;;;;;;5.60;99.90;;;;;;5095450;28;19920;-67
2022/12/01 04:45:58;;;;;;;;;;;5.50;99.90;;;;;;5095645;28;19908;-66
2022/12/01 04:48:23;;;;;;;;;;;5.50;99.90;;;;;;5095599;28;19999;-67
2022/12/01 04:50:49;;;;;;;;;;;5.50;99.90;;;;;;5077599;28;19908;-67
2022/12/01 04:53:14;;;;;;;;;;;5.40;99.90;;;;;;5095516;28;19908;-67
2022/12/01 04:55:40;;;;;;;;;;;5.40;99.90;;;;;;5077331;28;19909;-67
2022/12/01 04:58:05;;;;;;;;;;;5.50;99.90;;;;;;5095682;28;19947;-66
2022/12/01 05:00:31;;;;;;;;;;;5.50;99.90;;;;;;5095411;28;19919;-66
2022/12/01 05:02:57;;;;;;;;;;;5.50;99.90;;;;;;5095319;28;19912;-66
2022/12/01 05:05:23;;;;;;;;;;;5.40;99.90;;;;;;5076271;28;20262;-67
2022/12/01 05:07:48;;;;;;;;;;;5.40;99.90;;;;;;5095433;28;19915;-67
2022/12/01 05:10:14;;;;;;;;;;;5.40;99.90;;;;;;5077108;28;19908;-67
2022/12/01 05:12:40;;;;;;;;;;;5.40;99.90;;;;;;5077075;28;19915;-67
2022/12/01 05:15:06;;;;;;;;;;;5.40;99.90;;;;;;5095108;28;19908;-67
2022/12/01 05:17:31;;;;;;;;;;;5.30;99.90;;;;;;5095077;28;20377;-67
2022/12/01 05:22:42;;;;;;;;;;;5.30;99.90;;;;;;5094657;28;19935;-67
2022/12/01 05:25:07;;;;;;;;;;;5.40;99.90;;;;;;5094914;28;19909;-67
2022/12/01 05:27:33;;;;;;;;;;;5.40;99.90;;;;;;5076814;28;20320;-66
2022/12/01 05:29:58;;;;;;;;;;;5.40;99.90;;;;;;5094823;28;19908;-67
2022/12/01 05:32:24;;;;;;;;;;;5.40;99.90;;;;;;5094752;28;19914;-67
2022/12/01 05:34:49;;;;;;;;;;;5.40;99.90;;;;;;5094706;28;19915;-67
2022/12/01 05:37:15;;;;;;;;;;;5.40;99.90;;;;;;5094673;28;19908;-66
2022/12/01 05:39:40;;;;;;;;;;;5.40;99.90;;;;;;5094663;28;19995;-67
2022/12/01 05:42:06;;;;;;;;;;;5.30;99.90;;;;;;5094365;28;19927;-67
2022/12/01 05:44:31;;;;;;;;;;;5.30;99.90;;;;;;5094546;28;19912;-67
2022/12/01 05:46:56;;;;;;;;;;;5.30;99.90;;;;;;5094479;28;19923;-66
2022/12/01 05:49:22;;;;;;;;;;;5.30;99.90;;;;;;5076392;28;20409;-67
2022/12/01 05:51:47;;;;;;;;;;;5.30;99.90;;;;;;5094447;28;20286;-67
2022/12/01 05:54:13;;;;;;;;;;;5.30;99.90;;;;;;5094381;28;19908;-67
2022/12/01 05:56:38;;;;;;;;;;;5.30;99.90;;;;;;5094324;28;19920;-67
2022/12/01 05:59:04;;;;;;;;;;;5.30;99.90;;;;;;5094299;28;19908;-67
2022/12/01 06:01:29;;;;;;;;;;;5.30;99.90;;;;;;5076061;28;19908;-66
2022/12/01 06:03:55;;;;;;;;;;;5.30;99.90;;;;;;5094128;28;20263;-67
2022/12/01 06:06:20;;;;;;;;;;;5.30;99.90;;;;;;5094241;28;19908;-67
2022/12/01 06:08:46;;;;;;;;;;;5.30;99.90;;;;;;5075939;28;19908;-66
2022/12/01 06:11:11;;;;;;;;;;;5.30;99.90;;;;;;5076059;28;19912;-66
2022/12/01 06:13:37;;;;;;;;;;;5.30;99.90;;;;;;5075997;28;20000;-66
2022/12/01 06:16:03;;;;;;;;;;;5.30;99.90;;;;;;5094267;28;19930;-67
2022/12/01 06:18:29;;;;;;;;;;;5.30;99.90;;;;;;5075765;28;19915;-67
2022/12/01 06:20:55;;;;;;;;;;;5.30;99.90;;;;;;5093926;28;19908;-66
2022/12/01 06:23:21;;;;;;;;;;;5.30;99.90;;;;;;5093859;28;19916;-66
2022/12/01 06:25:46;;;;;;;;;;;5.30;99.90;;;;;;5093893;28;19908;-67
2022/12/01 06:28:12;;;;;;;;;;;5.30;99.90;;;;;;5075718;28;20006;-66
2022/12/01 06:30:37;;;;;;;;;;;5.30;99.90;;;;;;5093846;28;19908;-67
2022/12/01 06:33:03;;;;;;;;;;;5.30;99.90;;;;;;5093794;28;19908;-67
2022/12/01 06:35:28;;;;;;;;;;;5.30;99.90;;;;;;5093769;28;20421;-67
2022/12/01 06:37:54;;;;;;;;;;;5.30;99.90;;;;;;5093806;28;20362;-67
2022/12/01 06:40:19;;;;;;;;;;;5.30;99.90;;;;;;5093644;28;19973;-67
2022/12/01 06:42:45;;;;;;;;;;;5.30;99.90;;;;;;5075319;28;20361;-67
2022/12/01 06:45:10;;;;;;;;;;;5.30;99.90;;;;;;5093645;28;19915;-67
2022/12/01 06:47:36;;;;;;;;;;;5.30;99.90;;;;;;5093595;28;20366;-67
2022/12/01 06:50:02;;;;;;;;;;;5.20;99.90;;;;;;5093794;28;19912;-67
2022/12/01 06:52:27;;;;;;;;;;;5.30;99.90;;;;;;5093548;28;19908;-66
2022/12/01 06:54:53;;;;;;;;;;;5.30;99.90;;;;;;5093558;28;20412;-67
2022/12/01 06:57:18;;;;;;;;;;;5.30;99.90;;;;;;5075589;28;19916;-67
2022/12/01 06:59:44;;;;;;;;;;;5.20;99.90;;;;;;5075153;28;19908;-66
2022/12/01 07:02:09;;;;;;;;;;;5.30;99.90;;;;;;5093304;28;19916;-67
2022/12/01 07:04:35;;;;;;;;;;;5.30;99.90;;;;;;5093414;28;19908;-69
2022/12/01 07:07:00;;;;;;;;;;;5.30;99.90;;;;;;5093112;28;19935;-67
2022/12/01 07:09:26;;;;;;;;;;;5.30;99.90;;;;;;5075325;28;19974;-67
2022/12/01 07:11:51;;;;;;;;;;;5.30;99.90;;;;;;5093601;28;19959;-69
2022/12/01 07:14:20;;;;;;;;;;;5.30;99.90;;;;;;5093328;28;19908;-69
2022/12/01 07:16:45;;;;;;;;;;;5.30;99.90;;;;;;5093302;28;19908;-69
2022/12/01 07:19:11;;;;;;;;;;;5.30;99.90;;;;;;5093141;28;19935;-68
2022/12/01 07:21:36;;;;;;;;;;;5.30;99.90;;;;;;5093044;28;19912;-69
2022/12/01 07:24:02;;;;;;;;;;;5.30;99.90;;;;;;5093301;28;20289;-69
2022/12/01 07:26:27;;;;;;;;;;;5.30;99.90;;;;;;5093269;28;19915;-69
2022/12/01 07:28:53;;;;;;;;;;;5.30;99.90;;;;;;5093896;28;19915;-69
2022/12/01 07:31:18;;;;;;;;;;;5.30;99.90;;;;;;5078972;28;19938;-68
2022/12/01 07:33:44;;;;;;;;;;;5.30;99.90;;;;;;5078831;28;20324;-66
2022/12/01 07:36:10;;;;;;;;;;;5.30;99.90;;;;;;5096970;28;19996;-67
2022/12/01 07:38:36;;;;;;;;;;;5.30;99.90;;;;;;5096792;28;19923;-67
2022/12/01 07:41:04;;;;;;;;;;;5.30;99.90;;;;;;5096752;28;19912;-67
2022/12/01 07:43:31;;;;;;;;;;;5.30;99.90;;;;;;5096502;28;20289;-67
2022/12/01 07:45:56;;;;;;;;;;;5.30;99.90;;;;;;5078767;28;20003;-67
2022/12/01 07:48:22;;;;;;;;;;;5.30;99.90;;;;;;5096738;28;20367;-67
2022/12/01 07:50:47;;;;;;;;;;;5.30;99.90;;;;;;5096665;28;19912;-67
2022/12/01 07:53:13;;;;;;;;;;;5.30;99.90;;;;;;5096672;28;20282;-67
2022/12/01 07:55:38;;;;;;;;;;;5.20;99.90;;;;;;5096558;28;19912;-66
2022/12/01 07:58:03;;;;;;;;;;;5.20;99.90;;;;;;5096525;28;19908;-67
2022/12/01 08:00:29;;;;;;;;;;;5.30;99.90;;;;;;5096468;28;19908;-69
2022/12/01 08:02:54;;;;;;;;;;;5.30;99.90;;;;;;5078243;28;19912;-69
2022/12/01 08:05:20;;;;;;;;;;;5.30;99.90;;;;;;5096459;28;19962;-67
2022/12/01 08:07:45;;;;;;;;;;;5.30;99.90;;;;;;5096346;28;20358;-67
2022/12/01 08:10:11;;;;;;;;;;;5.30;99.90;;;;;;5096241;28;20429;-67
2022/12/01 08:12:36;;;;;;;;;;;5.30;99.90;;;;;;5096227;28;19965;-67
2022/12/01 08:15:02;;;;;;;;;;;5.40;99.90;;;;;;5096257;28;19908;-67
2022/12/01 08:17:27;;;;;;;;;;;5.40;99.90;;;;;;5096161;28;19908;-66
2022/12/01 08:19:53;;;;;;;;;;;5.40;99.90;;;;;;5096101;28;19915;-67
2022/12/01 08:22:18;;;;;;;;;;;5.40;99.90;;;;;;5077940;28;20008;-68
2022/12/01 08:24:44;;;;;;;;;;;5.50;99.90;;;;;;5096006;28;19915;-68
2022/12/01 08:27:09;;;;;;;;;;;5.40;99.90;;;;;;5077874;28;19920;-67
2022/12/01 08:29:35;;;;;;;;;;;5.40;99.90;;;;;;5095966;28;20362;-67
2022/12/01 08:32:00;;;;;;;;;;;5.50;99.90;;;;;;5077913;28;19908;-67
2022/12/01 08:34:26;;;;;;;;;;;5.50;99.90;;;;;;5077881;28;19912;-68
2022/12/01 08:36:51;;;;;;;;;;;5.50;99.90;;;;;;5095862;28;19961;-68
2022/12/01 08:39:16;;;;;;;;;;;5.50;99.90;;;;;;5095740;28;20003;-68
2022/12/01 08:41:42;;;;;;;;;;;5.50;99.90;;;;;;5077271;28;19917;-68
2022/12/01 08:44:08;;;;;;;;;;;5.40;99.90;;;;;;5095652;28;19919;-68
2022/12/01 08:46:37;;;;;;;;;;;5.50;99.90;;;;;;5095672;28;19915;-68
2022/12/01 08:49:04;;;;;;;;;;;5.50;99.90;;;;;;5095604;28;19909;-68
2022/12/01 08:51:30;;;;;;;;;;;5.50;99.90;;;;;;5095547;28;20362;-67
2022/12/01 08:53:56;;;;;;;;;;;5.50;99.90;;;;;;5095476;28;19908;-68
2022/12/01 08:56:24;;;;;;;;;;;5.50;99.90;;;;;;5077352;28;19970;-68
2022/12/01 08:58:50;;;;;;;;;;;5.50;99.90;;;;;;5095383;28;19957;-67
2022/12/01 09:01:16;;;;;;;;;;;5.50;99.90;;;;;;5095236;28;19908;-68
2022/12/01 09:03:42;;;;;;;;;;;5.60;99.90;;;;;;5095029;28;19916;-67
2022/12/01 09:06:09;;;;;;;;;;;5.60;99.90;;;;;;5095143;28;20290;-67
2022/12/01 09:08:35;;;;;;;;;;;5.70;99.90;;;;;;5095178;28;19999;-67
2022/12/01 09:11:03;;;;;;;;;;;5.60;99.90;;;;;;5095272;28;19931;-67
2022/12/01 09:13:28;;;;;;;;;;;5.70;99.90;;;;;;5095098;28;19912;-67
2022/12/01 09:15:55;;;;;;;;;;;5.70;99.90;;;;;;5093356;28;20366;-67
2022/12/01 09:18:21;;;;;;;;;;;5.70;99.90;;;;;;5085749;28;19974;-67
2022/12/01 09:20:46;;;;;;;;;;;5.70;99.90;;;;;;5093408;28;19947;-67
2022/12/01 09:23:12;;;;;;;;;;;5.70;99.90;;;;;;5093900;28;19935;-67
2022/12/01 09:25:37;;;;;;;;;;;5.70;99.90;;;;;;5094816;28;20366;-67
2022/12/01 09:28:03;;;;;;;;;;;5.70;99.90;;;;;;5094694;28;19973;-67
2022/12/01 09:30:28;;;;;;;;;;;5.70;99.90;;;;;;5094717;28;19934;-67
2022/12/01 09:32:54;;;;;;;;;;;5.70;99.90;;;;;;5093941;28;19909;-67
2022/12/01 09:35:19;;;;;;;;;;;5.70;99.90;;;;;;5087624;28;19999;-68
2022/12/01 09:37:44;;;;;;;;;;;5.80;99.90;;;;;;5094355;28;19909;-67
2022/12/01 09:40:13;;;;;;;;;;;5.70;99.90;;;;;;5076286;28;20008;-67
2022/12/01 09:42:39;;;;;;;;;;;5.80;99.90;;;;;;5076097;28;19920;-68
2022/12/01 09:45:06;;;;;;;;;;;5.80;99.90;;;;;;5076237;28;19915;-67
2022/12/01 09:47:35;;;;;;;;;;;5.80;99.90;;;;;;5094450;28;20000;-68
2022/12/01 09:50:03;;;;;;;;;;;5.90;99.90;;;;;;5094282;28;19908;-67
2022/12/01 09:52:32;;;;;;;;;;;5.90;99.90;;;;;;5059004;28;20014;-68
2022/12/01 09:54:58;;;;;;;;;;;5.90;99.90;;;;;;5094296;28;19908;-68
2022/12/01 09:57:29;;;;;;;;;;;5.90;99.90;;;;;;5094276;28;20289;-68
2022/12/01 09:59:55;;;;;;;;;;;6.00;99.90;;;;;;5094183;28;19944;-68
2022/12/01 10:02:32;;;;;;;;;;;6.00;99.90;;;;;;5075846;28;19912;-67
2022/12/01 10:05:00;;;;;;;;;;;6.00;99.90;;;;;;5076157;28;19908;-67
2022/12/01 10:07:35;;;;;;;;;;;5.90;99.90;;;;;;5094089;28;19915;-67
2022/12/01 10:10:04;;;;;;;;;;;6.00;99.90;;;;;;5093984;28;19908;-67
2022/12/01 10:12:32;;;;;;;;;;;6.00;99.90;;;;;;5094008;28;20308;-68
2022/12/01 10:15:12;;;;;;;;;;;6.00;99.90;;;;;;5075680;28;19912;-68
2022/12/01 10:17:57;;;;;;;;;;;6.00;99.90;;;;;;5093941;28;19908;-68
2022/12/01 10:20:43;;;;;;;;;;;6.00;99.90;;;;;;5093714;28;19909;-67
2022/12/01 10:25:55;;;;;;;;;;;6.10;99.90;;;;;;5091248;27;19964;-67
2022/12/01 10:28:26;;;;;;;;;;;6.10;99.90;;;;;;5091046;28;20370;-67
2022/12/01 10:30:56;;;;;;;;;;;6.10;99.90;;;;;;5091048;28;20282;-69
2022/12/01 10:33:26;;;;;;;;;;;6.00;99.90;;;;;;5091087;28;19916;-69
2022/12/01 10:35:51;;;;;;;;;;;5.90;99.90;;;;;;5090877;28;20431;-67
2022/12/01 10:38:22;;;;;;;;;;;6.10;99.90;;;;;;5090704;28;19908;-67
2022/12/01 10:40:49;;;;;;;;;;;6.20;99.90;;;;;;5089546;28;20298;-69
2022/12/01 10:43:15;;;;;;;;;;;6.20;99.90;;;;;;5090838;28;19915;-68
2022/12/01 10:45:43;;;;;;;;;;;6.10;99.90;;;;;;5106067;28;19912;-69
2022/12/01 10:48:23;;;;;;;;;;;6.10;99.90;;;;;;5089193;28;19917;-69
2022/12/01 10:50:50;;;;;;;;;;;6.20;99.90;;;;;;5088726;28;20277;-67
2022/12/01 10:53:28;;;;;;;;;;;6.20;99.90;;;;;;5090636;28;20370;-67
2022/12/01 10:55:59;;;;;;;;;;;6.10;99.90;;;;;;5090603;28;19908;-67
2022/12/01 10:58:25;;;;;;;;;;;6.20;99.90;;;;;;5090560;28;19915;-67
2022/12/01 11:00:59;;;;;;;;;;;6.20;99.90;;;;;;5090324;28;19912;-67
2022/12/01 11:03:27;;;;;;;;;;;6.30;99.90;;;;;;5088988;28;19909;-68
2022/12/01 11:05:57;;;;;;;;;;;6.40;99.90;;;;;;5090359;28;19912;-68
2022/12/01 11:08:24;;;;;;;;;;;6.50;99.90;;;;;;5089014;28;20447;-67
2022/12/01 11:10:50;;;;;;;;;;;6.50;99.90;;;;;;5089874;28;19913;-67
2022/12/01 11:13:20;;;;;;;;;;;6.50;99.90;;;;;;5090026;28;19908;-67
2022/12/01 11:15:54;;;;;;;;;;;6.40;99.90;;;;;;5090139;28;19908;-67
2022/12/01 11:18:21;;;;;;;;;;;6.40;99.90;;;;;;5088961;28;19909;-68
2022/12/01 11:20:47;;;;;;;;;;;6.40;99.90;;;;;;5089980;28;20409;-67
2022/12/01 11:23:23;;;;;;;;;;;6.40;99.90;;;;;;5089993;28;19908;-67
2022/12/01 11:25:58;;;;;;;;;;;6.50;99.90;;;;;;5088618;28;19957;-67
2022/12/01 11:28:23;;;;;;;;;;;6.40;99.90;;;;;;5089863;28;19909;-67
2022/12/01 11:30:57;;;;;;;;;;;6.40;99.90;;;;;;5089854;28;19915;-67
2022/12/01 11:33:23;;;;;;;;;;;6.30;99.90;;;;;;5089794;28;20005;-67
2022/12/01 11:35:48;;;;;;;;;;;6.20;99.90;;;;;;5083744;28;19916;-67
2022/12/01 11:38:19;;;;;;;;;;;6.20;99.90;;;;;;5076298;28;19964;-67
2022/12/01 11:40:47;;;;;;;;;;;6.30;99.90;;;;;;5076187;28;19908;-67
2022/12/01 11:43:19;;;;;;;;;;;6.30;99.90;;;;;;5076184;28;19958;-67
2022/12/01 11:45:45;;;;;;;;;;;6.30;99.90;;;;;;5075935;28;20006;-67
2022/12/01 11:51:08;;;;;;;;;;;6.30;99.90;;;;;;5091216;27;19913;-67
2022/12/01 11:53:36;;;;;;;;;;;6.40;99.90;;;;;;5091103;28;19912;-67
2022/12/01 11:56:13;;;;;;;;;;;6.50;99.90;;;;;;5091369;28;20369;-67
2022/12/01 11:58:39;;;;;;;;;;;6.50;99.90;;;;;;5090359;28;19908;-69
2022/12/01 12:01:14;;;;;;;;;;;6.40;99.90;;;;;;5090736;28;20397;-69
2022/12/01 12:03:54;;;;;;;;;;;6.30;99.90;;;;;;5090860;28;19935;-69
2022/12/01 12:06:22;;;;;;;;;;;6.20;99.90;;;;;;5090821;28;19935;-69
2022/12/01 12:09:01;;;;;;;;;;;6.20;99.90;;;;;;5090683;28;19919;-68
2022/12/01 12:11:46;;;;;;;;;;;6.20;99.90;;;;;;5089379;28;19915;-69
2022/12/01 12:14:16;;;;;;;;;;;6.30;99.90;;;;;;5090673;28;19909;-67
2022/12/01 12:16:52;;;;;;;;;;;6.40;99.90;;;;;;5089278;28;19962;-67
2022/12/01 12:19:27;;;;;;;;;;;6.50;99.90;;;;;;5090608;28;19915;-67
2022/12/01 12:22:12;;;;;;;;;;;6.60;99.90;;;;;;5089176;28;19940;-67
2022/12/01 12:24:57;;;;;;;;;;;6.80;99.90;;;;;;5090626;28;20286;-68
2022/12/01 12:27:43;;;;;;;;;;;6.70;99.90;;;;;;5090414;28;19909;-67
2022/12/01 12:30:14;;;;;;;;;;;6.70;99.90;;;;;;5090322;28;19918;-67
2022/12/01 12:32:59;;;;;;;;;;;6.50;99.90;;;;;;5090257;28;19919;-68
2022/12/01 12:35:45;;;;;;;;;;;6.50;99.90;;;;;;5090369;28;19912;-68
2022/12/01 12:38:30;;;;;;;;;;;6.40;99.90;;;;;;5090239;28;19952;-68
2022/12/01 12:41:16;;;;;;;;;;;6.40;99.90;;;;;;5090150;28;19908;-68
2022/12/01 12:43:52;;;;;;;;;;;6.40;99.90;;;;;;5090120;28;19958;-67
2022/12/01 12:46:23;;;;;;;;;;;6.40;99.90;;;;;;5090118;28;19909;-68
2022/12/01 12:48:58;;;;;;;;;;;6.40;99.90;;;;;;5122693;28;19921;-67
2022/12/01 12:51:43;;;;;;;;;;;6.30;99.90;;;;;;5122946;28;19991;-69
2022/12/01 12:54:14;;;;;;;;;;;6.30;99.90;;;;;;5090024;28;19954;-68
2022/12/01 12:56:42;;;;;;;;;;;6.30;99.90;;;;;;5089760;28;19919;-68
2022/12/01 12:59:11;;;;;;;;;;;6.30;99.90;;;;;;5089885;28;19913;-68
2022/12/01 13:01:39;;;;;;;;;;;6.30;99.90;;;;;;5079263;28;19918;-68
2022/12/01 13:04:24;;;;;;;;;;;6.30;99.90;;;;;;5076130;28;19908;-67
2022/12/01 13:06:54;;;;;;;;;;;6.20;99.90;;;;;;5076133;28;20011;-67
2022/12/01 13:09:25;;;;;;;;;;;6.10;99.90;;;;;;5074673;28;19916;-67
2022/12/01 13:11:54;;;;;;;;;;;6.10;99.90;;;;;;5075813;28;20339;-67
2022/12/01 13:14:37;;;;;;;;;;;6.10;99.90;;;;;;5076113;28;19919;-67
2022/12/01 13:17:13;;;;;;;;;;;6.00;99.90;;;;;;5074721;28;20006;-67
2022/12/01 13:19:40;;;;;;;;;;;6.00;99.90;;;;;;5075892;28;19962;-67
2022/12/01 13:22:06;;;;;;;;;;;6.00;99.90;;;;;;5075938;28;19908;-67
2022/12/01 13:24:32;;;;;;;;;;;6.00;99.90;;;;;;5091476;28;19908;-68
2022/12/01 13:27:03;;;;;;;;;;;6.00;99.90;;;;;;5075903;28;19908;-67
2022/12/01 13:29:32;;;;;;;;;;;6.00;99.90;;;;;;5074522;28;19912;-67
2022/12/01 13:31:58;;;;;;;;;;;6.00;99.90;;;;;;5075865;28;19915;-67
2022/12/01 13:34:26;;;;;;;;;;;6.00;99.90;;;;;;5075748;28;19909;-67
2022/12/01 13:36:53;;;;;;;;;;;6.00;99.90;;;;;;5108336;28;20285;-68
2022/12/01 13:39:21;;;;;;;;;;;6.00;99.90;;;;;;5075605;28;19909;-68
2022/12/01 13:41:56;;;;;;;;;;;6.10;99.90;;;;;;5075545;28;19908;-68
2022/12/01 13:44:23;;;;;;;;;;;6.20;99.90;;;;;;5075462;28;19915;-68
2022/12/01 13:46:57;;;;;;;;;;;6.20;99.90;;;;;;5075385;28;19995;-67
2022/12/01 13:49:32;;;;;;;;;;;6.10;99.90;;;;;;5083886;28;20297;-67
2022/12/01 13:52:18;;;;;;;;;;;6.10;99.90;;;;;;5095535;28;19908;-67
2022/12/01 13:55:03;;;;;;;;;;;6.00;99.90;;;;;;5077283;28;20369;-67
2022/12/01 13:57:30;;;;;;;;;;;6.00;99.90;;;;;;5095347;28;20404;-67
2022/12/01 14:02:35;;;;;;;;;;;6.00;99.90;;;;;;5091140;27;19913;-69
2022/12/01 14:05:20;;;;;;;;;;;5.90;99.90;;;;;;5091098;28;20467;-70
2022/12/01 14:07:45;;;;;;;;;;;5.90;99.90;;;;;;5091005;28;19913;-68
2022/12/01 14:10:28;;;;;;;;;;;5.90;99.90;;;;;;5090940;28;20426;-69
2022/12/01 14:12:55;;;;;;;;;;;5.80;99.90;;;;;;5090893;28;19915;-69
2022/12/01 14:15:26;;;;;;;;;;;5.80;99.90;;;;;;5090770;28;19909;-69
2022/12/01 14:18:01;;;;;;;;;;;5.80;99.90;;;;;;5090826;28;20471;-70
2022/12/01 14:20:27;;;;;;;;;;;5.80;99.90;;;;;;5090773;28;19912;-69
2022/12/01 14:23:12;;;;;;;;;;;5.70;99.90;;;;;;5123629;28;20008;-70
2022/12/01 14:25:38;;;;;;;;;;;5.80;99.90;;;;;;5090655;28;19912;-69
2022/12/01 14:28:11;;;;;;;;;;;5.70;99.90;;;;;;5090549;28;19915;-70
2022/12/01 14:33:37;;;;;;;;;;;5.80;99.90;;;;;;5007724;28;19913;-67
2022/12/01 14:36:05;;;;;;;;;;;5.70;99.90;;;;;;5007472;28;19914;-67
2022/12/01 14:38:31;;;;;;;;;;;5.70;99.90;;;;;;5007494;28;19909;-67
2022/12/01 14:40:56;;;;;;;;;;;5.70;99.90;;;;;;5007783;28;19939;-67
2022/12/01 14:46:10;;;;;;;;;;;5.70;99.90;;;;;;5007099;28;20378;-67
2022/12/01 14:48:39;;;;;;;;;;;5.70;99.90;;;;;;5007215;28;20421;-67
2022/12/01 14:51:10;;;;;;;;;;;5.60;99.90;;;;;;5007507;28;19917;-67
2022/12/01 14:53:37;;;;;;;;;;;5.60;99.90;;;;;;5007367;28;20418;-67
2022/12/01 14:56:12;;;;;;;;;;;5.60;99.90;;;;;;5006940;28;19910;-67
2022/12/01 14:58:49;;;;;;;;;;;5.50;99.90;;;;;;5007400;28;19910;-67
2022/12/01 15:01:14;;;;;;;;;;;5.50;99.90;;;;;;5007347;28;19909;-67